Time;durP1;ratioP1;P1;durP2;ratioP2;P2;SDS_P1;SDS_P2;PMS_P1;PMS_P2;Temp;Humidity;BMP_temperature;BMP_pressure;BME280_temperature;BME280_humidity;BME280_pressure;Samples;Min_cycle;Max_cycle;Signal;HPM_P1;HPM_P2
2023/09/02 00:02:13;;;;;;;21.35;18.23;;;18.10;89.10;;;;;;5110196;28;20031;-37
2023/09/02 00:04:39;;;;;;;21.98;18.15;;;18.10;89.10;;;;;;5110274;28;20027;-37
2023/09/02 00:07:05;;;;;;;23.02;18.45;;;18.10;89.10;;;;;;5110372;28;20031;-41
2023/09/02 00:09:30;;;;;;;22.58;17.80;;;18.10;89.20;;;;;;5110076;28;20032;-38
2023/09/02 00:11:56;;;;;;;23.70;18.73;;;18.10;89.20;;;;;;5110385;28;20028;-41
2023/09/02 00:14:21;;;;;;;24.10;17.17;;;18.20;89.20;;;;;;5110095;28;20035;-40
2023/09/02 00:16:47;;;;;;;22.70;18.08;;;18.10;89.10;;;;;;5110347;28;20454;-42
2023/09/02 00:19:12;;;;;;;23.10;18.00;;;18.10;89.10;;;;;;5109932;28;20086;-40
2023/09/02 00:21:38;;;;;;;24.48;18.95;;;18.00;89.10;;;;;;5109981;28;20504;-38
2023/09/02 00:24:07;;;;;;;24.58;18.60;;;18.00;89.30;;;;;;5110002;28;20361;-38
2023/09/02 00:26:33;;;;;;;21.33;18.13;;;17.90;89.30;;;;;;5109805;28;20127;-37
2023/09/02 00:29:00;;;;;;;22.55;17.00;;;17.80;89.40;;;;;;5109991;28;20028;-36
2023/09/02 00:31:26;;;;;;;21.20;17.67;;;17.80;89.50;;;;;;5109743;28;20054;-38
2023/09/02 00:33:52;;;;;;;23.00;18.65;;;17.80;89.70;;;;;;5109970;28;20023;-40
2023/09/02 00:36:18;;;;;;;20.95;17.40;;;17.70;89.70;;;;;;5091512;28;20024;-42
2023/09/02 00:38:44;;;;;;;24.38;18.05;;;17.70;89.80;;;;;;5109726;28;20028;-37
2023/09/02 00:41:13;;;;;;;22.83;16.90;;;17.60;89.70;;;;;;5111245;28;20564;-38
2023/09/02 00:43:40;;;;;;;23.38;18.00;;;17.60;89.80;;;;;;5113601;28;20023;-38
2023/09/02 00:46:08;;;;;;;22.95;17.33;;;17.60;89.90;;;;;;5113143;28;20074;-41
2023/09/02 00:48:33;;;;;;;23.85;17.83;;;17.50;89.90;;;;;;5112553;28;20035;-41
2023/09/02 00:50:59;;;;;;;21.20;16.73;;;17.50;90.00;;;;;;5112417;28;20096;-39
2023/09/02 00:53:25;;;;;;;22.02;16.42;;;17.50;90.00;;;;;;5112295;28;20024;-41
2023/09/02 00:55:52;;;;;;;21.92;17.55;;;17.50;90.00;;;;;;5112465;28;20519;-39
2023/09/02 00:58:18;;;;;;;21.08;16.50;;;17.40;90.00;;;;;;5112441;28;20023;-40
2023/09/02 01:00:45;;;;;;;20.23;17.10;;;17.40;90.00;;;;;;5112046;28;20020;-37
2023/09/02 01:03:11;;;;;;;21.75;17.33;;;17.40;90.00;;;;;;5112176;28;20027;-38
2023/09/02 01:05:37;;;;;;;21.52;16.83;;;17.40;90.00;;;;;;5112346;28;20024;-43
2023/09/02 01:08:05;;;;;;;22.73;17.10;;;17.40;90.10;;;;;;5111966;28;20489;-40
2023/09/02 01:10:35;;;;;;;23.00;16.63;;;17.30;90.10;;;;;;5112116;28;20030;-40
2023/09/02 01:13:02;;;;;;;21.52;17.05;;;17.30;90.10;;;;;;5112320;28;20015;-43
2023/09/02 01:15:27;;;;;;;20.63;16.90;;;17.20;90.10;;;;;;5111770;28;20039;-36
2023/09/02 01:17:53;;;;;;;21.05;16.23;;;17.30;90.10;;;;;;5111820;28;20406;-39
2023/09/02 01:20:22;;;;;;;21.92;16.08;;;17.20;90.10;;;;;;5111779;28;20042;-40
2023/09/02 01:23:22;;;;;;;21.02;16.48;;;17.20;90.10;;;;;;5112441;28;20472;-40
2023/09/02 01:26:06;;;;;;;19.98;16.05;;;17.20;90.10;;;;;;5111419;28;20012;-42
2023/09/02 01:28:33;;;;;;;20.05;15.98;;;17.30;90.10;;;;;;5111695;28;20484;-39
2023/09/02 01:31:02;;;;;;;21.75;16.52;;;17.30;90.10;;;;;;5111721;28;20055;-39
2023/09/02 01:33:28;;;;;;;21.38;16.23;;;17.30;90.10;;;;;;5111509;28;20027;-39
2023/09/02 01:35:58;;;;;;;19.35;15.60;;;17.40;90.10;;;;;;5111344;28;20066;-41
2023/09/02 01:38:27;;;;;;;20.73;16.33;;;17.40;90.00;;;;;;5111411;28;20103;-40
2023/09/02 01:40:54;;;;;;;19.67;16.23;;;17.40;90.00;;;;;;5111432;28;20031;-35
2023/09/02 01:43:23;;;;;;;19.73;15.68;;;17.50;90.00;;;;;;5111422;28;20037;-34
2023/09/02 01:45:51;;;;;;;19.88;15.60;;;17.50;90.00;;;;;;5111272;28;20389;-38
2023/09/02 01:48:18;;;;;;;21.20;16.05;;;17.60;90.00;;;;;;5092904;28;20030;-39
2023/09/02 01:50:44;;;;;;;18.40;15.38;;;17.60;90.00;;;;;;5111122;28;20496;-36
2023/09/02 01:53:10;;;;;;;20.65;16.30;;;17.60;90.00;;;;;;5110907;28;20484;-36
2023/09/02 01:55:35;;;;;;;20.05;15.20;;;17.60;90.00;;;;;;5111138;28;20028;-38
2023/09/02 01:58:01;;;;;;;19.50;15.20;;;17.60;90.00;;;;;;5092707;28;20548;-42
2023/09/02 02:00:27;;;;;;;20.05;14.95;;;17.70;90.00;;;;;;5111288;28;20069;-37
2023/09/02 02:02:54;;;;;;;19.67;15.00;;;17.70;90.00;;;;;;5111091;28;20538;-35
2023/09/02 02:05:32;;;;;;;19.48;14.95;;;17.70;90.00;;;;;;5110764;28;20023;-41
2023/09/02 02:08:09;;;;;;;19.25;15.23;;;17.80;90.00;;;;;;5111255;28;20023;-41
2023/09/02 02:10:36;;;;;;;19.45;14.68;;;17.70;90.00;;;;;;5111059;28;20020;-38
2023/09/02 02:13:02;;;;;;;20.65;15.73;;;17.80;90.00;;;;;;5110801;28;20030;-37
2023/09/02 02:15:28;;;;;;;20.13;15.15;;;17.70;90.00;;;;;;5110839;28;20339;-37
2023/09/02 02:17:53;;;;;;;20.10;14.95;;;17.80;90.00;;;;;;5110791;28;20106;-40
2023/09/02 02:20:21;;;;;;;18.75;14.48;;;17.80;90.00;;;;;;5110675;28;20019;-39
2023/09/02 02:22:46;;;;;;;18.98;14.63;;;17.80;90.00;;;;;;5111200;28;20031;-43
2023/09/02 02:25:12;;;;;;;19.25;14.65;;;17.80;90.00;;;;;;5110425;28;20019;-42
2023/09/02 02:27:37;;;;;;;19.52;14.73;;;17.80;90.00;;;;;;5110395;28;20051;-41
2023/09/02 02:30:03;;;;;;;20.80;14.98;;;17.80;90.00;;;;;;5110505;28;20053;-39
2023/09/02 02:32:29;;;;;;;20.63;15.13;;;17.80;90.00;;;;;;5092000;28;20023;-41
2023/09/02 02:34:54;;;;;;;19.35;15.05;;;17.80;90.00;;;;;;5110552;28;20077;-39
2023/09/02 02:37:20;;;;;;;20.77;14.80;;;17.80;90.00;;;;;;5110401;28;20426;-39
2023/09/02 02:39:46;;;;;;;20.05;14.63;;;17.80;90.00;;;;;;5110612;28;20361;-43
2023/09/02 02:42:14;;;;;;;20.23;14.50;;;17.80;90.00;;;;;;5110291;28;20451;-39
2023/09/02 02:44:40;;;;;;;21.63;14.88;;;17.80;90.00;;;;;;5091911;28;20058;-37
2023/09/02 02:47:06;;;;;;;20.20;14.40;;;17.90;90.00;;;;;;5110285;28;20047;-37
2023/09/02 02:49:31;;;;;;;21.48;14.55;;;17.90;90.00;;;;;;5110312;28;20442;-37
2023/09/02 02:51:57;;;;;;;19.08;14.43;;;17.90;90.00;;;;;;5110171;28;20518;-42
2023/09/02 02:54:22;;;;;;;21.25;15.65;;;17.90;90.00;;;;;;5109968;28;20503;-38
2023/09/02 02:56:48;;;;;;;20.83;15.32;;;17.90;90.00;;;;;;5110534;28;20027;-37
2023/09/02 02:59:13;;;;;;;24.70;16.98;;;17.90;90.00;;;;;;5110093;28;20485;-39
2023/09/02 03:01:39;;;;;;;24.95;16.45;;;17.90;90.00;;;;;;5109938;28;20481;-38
2023/09/02 03:04:05;;;;;;;30.10;16.48;;;17.90;90.00;;;;;;5109532;28;20038;-34
2023/09/02 03:06:31;;;;;;;27.92;16.88;;;17.90;90.10;;;;;;5091439;28;20083;-36
2023/09/02 03:08:56;;;;;;;26.58;16.45;;;17.90;90.10;;;;;;5110079;28;20027;-39
2023/09/02 03:11:22;;;;;;;27.75;16.77;;;17.80;90.10;;;;;;5109668;28;20380;-38
2023/09/02 03:13:47;;;;;;;30.17;17.55;;;17.90;90.10;;;;;;5109947;28;20069;-35
2023/09/02 03:16:13;;;;;;;26.75;15.93;;;17.80;90.10;;;;;;5109897;28;20098;-35
2023/09/02 03:18:41;;;;;;;23.55;14.82;;;17.80;90.10;;;;;;5109619;28;20020;-40
2023/09/02 03:21:07;;;;;;;27.70;16.45;;;17.80;90.20;;;;;;5109590;28;20019;-40
2023/09/02 03:23:34;;;;;;;31.40;16.48;;;17.80;90.10;;;;;;5110135;28;20046;-36
2023/09/02 03:26:15;;;;;;;28.98;16.52;;;17.90;90.20;;;;;;5109759;28;20368;-42
2023/09/02 03:28:40;;;;;;;30.67;15.20;;;17.90;90.20;;;;;;5109553;28;20040;-38
2023/09/02 03:31:08;;;;;;;35.85;16.42;;;17.90;90.20;;;;;;5091636;28;20495;-38
2023/09/02 03:33:33;;;;;;;38.83;16.67;;;17.90;90.20;;;;;;5109488;28;20023;-38
2023/09/02 03:35:59;;;;;;;36.42;17.42;;;17.90;90.20;;;;;;5109677;28;20201;-36
2023/09/02 03:38:26;;;;;;;38.15;16.88;;;17.90;90.20;;;;;;5110028;28;20031;-40
2023/09/02 03:40:52;;;;;;;28.77;16.98;;;17.90;90.20;;;;;;5109753;28;20012;-40
2023/09/02 03:43:17;;;;;;;30.17;17.00;;;17.80;90.20;;;;;;5109629;28;20054;-39
2023/09/02 03:45:43;;;;;;;30.52;16.48;;;17.80;90.20;;;;;;5109529;28;20032;-38
2023/09/02 03:48:08;;;;;;;29.77;16.70;;;17.90;90.30;;;;;;5109624;28;20027;-36
2023/09/02 03:51:01;;;;;;;27.80;16.83;;;17.90;90.30;;;;;;5109672;28;20028;-38
2023/09/02 03:53:27;;;;;;;26.75;15.85;;;17.90;90.30;;;;;;5109883;28;20016;-38
2023/09/02 03:55:53;;;;;;;26.75;15.60;;;17.80;90.20;;;;;;5109579;28;20068;-40
2023/09/02 03:58:18;;;;;;;27.33;16.45;;;17.90;90.30;;;;;;5109460;28;20031;-42
2023/09/02 04:00:44;;;;;;;28.33;16.70;;;17.90;90.30;;;;;;5109271;28;20020;-40
2023/09/02 04:03:10;;;;;;;28.80;16.67;;;17.90;90.30;;;;;;5109561;28;20043;-36
2023/09/02 04:05:35;;;;;;;32.00;16.48;;;17.90;90.30;;;;;;5109508;28;20019;-40
2023/09/02 04:08:01;;;;;;;32.90;17.05;;;17.80;90.30;;;;;;5109830;28;20054;-38
2023/09/02 04:10:26;;;;;;;33.78;17.65;;;17.90;90.30;;;;;;5109322;28;20144;-41
2023/09/02 04:12:52;;;;;;;30.05;17.30;;;17.90;90.30;;;;;;5109194;28;20031;-38
2023/09/02 04:15:18;;;;;;;33.95;17.48;;;17.90;90.30;;;;;;5109165;28;20019;-39
2023/09/02 04:17:43;;;;;;;30.83;16.67;;;17.90;90.40;;;;;;5113256;28;20039;-35
2023/09/02 04:20:10;;;;;;;34.33;17.17;;;17.90;90.30;;;;;;5113315;28;20026;-36
2023/09/02 04:22:36;;;;;;;33.55;17.23;;;17.90;90.40;;;;;;5113106;28;20484;-39
2023/09/02 04:25:01;;;;;;;32.65;17.33;;;17.90;90.40;;;;;;5112912;28;20053;-42
2023/09/02 04:27:27;;;;;;;51.75;17.75;;;17.90;90.40;;;;;;5112892;28;20097;-34
2023/09/02 04:29:52;;;;;;;26.20;16.23;;;17.90;90.40;;;;;;5113104;28;20543;-38
2023/09/02 04:32:18;;;;;;;36.95;15.45;;;17.90;90.40;;;;;;5112673;28;20019;-34
2023/09/02 04:34:46;;;;;;;27.35;16.83;;;17.90;90.40;;;;;;5112670;28;20031;-38
2023/09/02 04:37:11;;;;;;;33.47;16.38;;;17.90;90.40;;;;;;5112624;28;20077;-38
2023/09/02 04:39:40;;;;;;;22.10;15.02;;;17.90;90.40;;;;;;5112933;28;20468;-35
2023/09/02 04:42:06;;;;;;;39.17;15.45;;;17.90;90.40;;;;;;5112596;28;20031;-38
2023/09/02 04:44:31;;;;;;;28.35;15.40;;;17.90;90.40;;;;;;5112470;28;20023;-39
2023/09/02 04:46:57;;;;;;;27.00;14.98;;;17.90;90.40;;;;;;5112988;28;20020;-38
2023/09/02 04:49:22;;;;;;;26.33;15.60;;;17.90;90.40;;;;;;5112439;28;20059;-42
2023/09/02 04:51:48;;;;;;;28.25;16.45;;;17.90;90.40;;;;;;5112602;28;20030;-38
2023/09/02 04:54:14;;;;;;;29.05;15.82;;;17.90;90.40;;;;;;5112627;28;20039;-35
2023/09/02 04:56:39;;;;;;;30.67;15.98;;;17.90;90.40;;;;;;5112544;28;20046;-38
2023/09/02 04:59:05;;;;;;;30.90;16.23;;;17.90;90.40;;;;;;5112438;28;20498;-41
2023/09/02 05:01:31;;;;;;;34.17;17.52;;;17.90;90.40;;;;;;5112334;28;20384;-42
2023/09/02 05:03:56;;;;;;;29.85;16.63;;;17.90;90.40;;;;;;5112266;28;20357;-38
2023/09/02 05:06:22;;;;;;;28.33;16.50;;;17.90;90.50;;;;;;5112807;28;20030;-41
2023/09/02 05:08:53;;;;;;;33.80;16.63;;;17.90;90.50;;;;;;5112084;28;20473;-40
2023/09/02 05:11:19;;;;;;;29.42;16.75;;;17.90;90.50;;;;;;5111956;28;20031;-38
2023/09/02 05:13:45;;;;;;;29.95;17.13;;;17.90;90.50;;;;;;5111933;28;20030;-41
2023/09/02 05:16:11;;;;;;;30.23;17.25;;;17.90;90.50;;;;;;5112254;28;20451;-38
2023/09/02 05:18:36;;;;;;;30.90;17.15;;;17.90;90.50;;;;;;5111703;28;20031;-41
2023/09/02 05:21:02;;;;;;;28.83;16.08;;;17.90;90.50;;;;;;5111850;28;20022;-40
2023/09/02 05:23:27;;;;;;;37.00;16.98;;;18.00;90.50;;;;;;5111731;28;20030;-37
2023/09/02 05:25:56;;;;;;;48.40;15.52;;;17.90;90.50;;;;;;5111703;28;20019;-42
2023/09/02 05:28:26;;;;;;;29.15;15.32;;;18.00;90.50;;;;;;5111625;28;20110;-40
2023/09/02 05:30:51;;;;;;;33.65;16.10;;;18.00;90.50;;;;;;5111927;28;20026;-42
2023/09/02 05:33:17;;;;;;;26.70;16.02;;;18.00;90.50;;;;;;5111617;28;20440;-36
2023/09/02 05:35:46;;;;;;;31.13;17.27;;;18.00;90.50;;;;;;5111410;28;20019;-39
2023/09/02 05:38:11;;;;;;;32.20;16.63;;;18.00;90.50;;;;;;5111353;28;20020;-42
2023/09/02 05:40:43;;;;;;;27.10;15.75;;;18.00;90.50;;;;;;5111732;28;20380;-40
2023/09/02 05:43:09;;;;;;;30.60;15.55;;;18.00;90.70;;;;;;5111516;28;20028;-39
2023/09/02 05:45:34;;;;;;;25.20;16.73;;;18.00;90.40;;;;;;5111335;28;20026;-41
2023/09/02 05:48:03;;;;;;;30.55;16.23;;;18.00;90.40;;;;;;5111471;28;20078;-39
2023/09/02 05:50:28;;;;;;;30.63;15.80;;;18.00;90.40;;;;;;5111482;28;20016;-37
2023/09/02 05:52:54;;;;;;;32.28;16.05;;;18.00;90.50;;;;;;5111125;28;20035;-37
2023/09/02 05:55:19;;;;;;;29.50;15.68;;;18.00;90.50;;;;;;5111169;28;20027;-40
2023/09/02 05:57:45;;;;;;;40.50;16.10;;;18.00;90.50;;;;;;5111114;28;20477;-40
2023/09/02 06:00:11;;;;;;;31.83;15.98;;;18.00;90.50;;;;;;5111028;28;20042;-40
2023/09/02 06:02:37;;;;;;;27.33;15.20;;;18.00;90.50;;;;;;5092595;28;20046;-39
2023/09/02 06:05:02;;;;;;;28.48;15.27;;;18.00;90.50;;;;;;5111387;28;20090;-35
2023/09/02 06:07:28;;;;;;;22.73;14.23;;;18.10;90.50;;;;;;5111212;28;20049;-40
2023/09/02 06:09:54;;;;;;;19.10;12.88;;;18.10;90.50;;;;;;5110843;28;20095;-42
2023/09/02 06:12:19;;;;;;;24.60;13.88;;;18.10;90.50;;;;;;5110652;28;20054;-39
2023/09/02 06:14:45;;;;;;;20.65;13.95;;;18.10;90.50;;;;;;5109383;28;20028;-37
2023/09/02 06:17:10;;;;;;;20.05;14.35;;;18.10;90.50;;;;;;5109294;28;20088;-40
2023/09/02 06:19:36;;;;;;;25.20;14.75;;;18.10;90.50;;;;;;5110738;28;20019;-39
2023/09/02 06:22:02;;;;;;;26.15;15.65;;;18.10;90.40;;;;;;5110616;28;20023;-37
2023/09/02 06:24:27;;;;;;;20.45;13.63;;;18.20;90.50;;;;;;5109536;28;20020;-40
2023/09/02 06:26:53;;;;;;;22.42;13.88;;;18.10;90.40;;;;;;5110885;28;20084;-37
2023/09/02 06:29:19;;;;;;;26.80;14.90;;;18.20;90.40;;;;;;5110620;28;20141;-39
2023/09/02 06:31:45;;;;;;;24.33;14.27;;;18.20;90.40;;;;;;5110515;28;20084;-41
2023/09/02 06:34:11;;;;;;;19.58;13.50;;;18.30;90.40;;;;;;5110633;28;20011;-36
2023/09/02 06:36:36;;;;;;;23.50;13.60;;;18.30;90.40;;;;;;5110966;28;20061;-38
2023/09/02 06:39:03;;;;;;;18.63;13.10;;;18.30;90.40;;;;;;5109391;28;20023;-38
2023/09/02 06:41:29;;;;;;;19.38;13.35;;;18.30;90.40;;;;;;5110256;28;20056;-41
2023/09/02 06:43:54;;;;;;;18.42;14.02;;;18.30;90.30;;;;;;5110001;28;20019;-38
2023/09/02 06:46:21;;;;;;;19.75;12.68;;;18.30;90.40;;;;;;5110331;28;20019;-39
2023/09/02 06:48:47;;;;;;;17.13;12.90;;;18.30;90.30;;;;;;5110380;28;20054;-40
2023/09/02 06:51:13;;;;;;;19.63;12.60;;;18.30;90.40;;;;;;5110324;28;20444;-40
2023/09/02 06:53:40;;;;;;;17.55;13.30;;;18.30;90.30;;;;;;5109945;28;20065;-39
2023/09/02 06:56:07;;;;;;;17.15;13.00;;;18.30;90.30;;;;;;5110177;28;20428;-38
2023/09/02 06:58:33;;;;;;;21.08;12.93;;;18.30;90.30;;;;;;5109876;28;20020;-38
2023/09/02 07:00:58;;;;;;;16.20;12.70;;;18.30;90.40;;;;;;5109894;28;20053;-41
2023/09/02 07:03:24;;;;;;;17.30;12.82;;;18.30;90.40;;;;;;5109699;28;20095;-38
2023/09/02 07:05:49;;;;;;;15.98;11.98;;;18.30;90.40;;;;;;5109978;28;20449;-37
2023/09/02 07:08:15;;;;;;;15.90;12.60;;;18.30;90.30;;;;;;5109715;28;20473;-36
2023/09/02 07:10:41;;;;;;;22.73;14.73;;;18.30;90.30;;;;;;5110015;28;20504;-38
2023/09/02 07:13:07;;;;;;;18.00;12.90;;;18.40;90.30;;;;;;5109860;28;20062;-37
2023/09/02 07:15:34;;;;;;;15.48;13.13;;;18.40;90.30;;;;;;5109648;28;20027;-39
2023/09/02 07:18:00;;;;;;;20.70;14.82;;;18.40;90.30;;;;;;5109766;28;20445;-39
2023/09/02 07:20:25;;;;;;;13.80;11.13;;;18.40;90.30;;;;;;5109410;28;20031;-38
2023/09/02 07:22:51;;;;;;;15.25;11.80;;;18.40;90.30;;;;;;5109627;28;20012;-39
2023/09/02 07:25:17;;;;;;;12.90;10.52;;;18.50;90.30;;;;;;5109500;28;20024;-41
2023/09/02 07:27:42;;;;;;;14.07;11.32;;;18.50;90.20;;;;;;5091274;28;20497;-37
2023/09/02 07:30:08;;;;;;;13.45;11.20;;;18.50;90.20;;;;;;5109983;28;20327;-39
2023/09/02 07:32:34;;;;;;;14.43;11.75;;;18.60;90.20;;;;;;5109780;28;20024;-40
2023/09/02 07:34:59;;;;;;;13.82;11.38;;;18.60;90.20;;;;;;5109218;28;20445;-40
2023/09/02 07:37:25;;;;;;;13.98;11.27;;;18.60;90.10;;;;;;5109371;28;20481;-40
2023/09/02 07:39:50;;;;;;;14.93;11.80;;;18.60;90.10;;;;;;5109611;28;20020;-40
2023/09/02 07:42:16;;;;;;;13.75;11.55;;;18.70;90.10;;;;;;5109590;28;20027;-37
2023/09/02 07:44:41;;;;;;;15.02;11.20;;;18.70;90.10;;;;;;5109203;28;20091;-41
2023/09/02 07:47:07;;;;;;;13.38;10.93;;;18.70;90.00;;;;;;5109391;28;20096;-38
2023/09/02 07:49:33;;;;;;;14.48;11.15;;;18.70;90.00;;;;;;5109635;28;20493;-37
2023/09/02 07:51:58;;;;;;;12.93;10.48;;;18.80;90.00;;;;;;5095196;28;20469;-35
2023/09/02 07:54:24;;;;;;;13.32;10.23;;;18.80;89.90;;;;;;5113468;28;20076;-35
2023/09/02 07:56:49;;;;;;;14.50;11.15;;;18.90;89.80;;;;;;5113584;28;20020;-40
2023/09/02 07:59:15;;;;;;;13.57;10.90;;;19.00;89.70;;;;;;5113017;28;20023;-39
2023/09/02 08:01:40;;;;;;;12.07;10.05;;;19.00;89.60;;;;;;5113369;28;20023;-40
2023/09/02 08:04:06;;;;;;;14.30;11.20;;;19.00;89.50;;;;;;5113489;28;20073;-37
2023/09/02 08:06:31;;;;;;;16.92;12.27;;;19.10;89.50;;;;;;5113925;28;20064;-36
2023/09/02 08:08:57;;;;;;;18.30;12.95;;;19.10;89.40;;;;;;5113606;28;20024;-38
2023/09/02 08:11:22;;;;;;;15.45;11.85;;;19.10;89.40;;;;;;5113296;28;20058;-40
2023/09/02 08:13:48;;;;;;;15.40;11.65;;;19.10;89.40;;;;;;5113106;28;20024;-37
2023/09/02 08:16:14;;;;;;;14.90;12.02;;;19.10;89.40;;;;;;5113282;28;20020;-39
2023/09/02 08:18:39;;;;;;;14.38;11.18;;;19.10;89.40;;;;;;5113408;28;20023;-38
2023/09/02 08:21:09;;;;;;;13.65;11.02;;;19.10;89.40;;;;;;5113438;28;20032;-41
2023/09/02 08:23:35;;;;;;;14.50;10.68;;;19.20;89.40;;;;;;5113312;28;20413;-41
2023/09/02 08:26:14;;;;;;;14.70;11.05;;;19.20;90.00;;;;;;5113104;28;20161;-41
2023/09/02 08:28:41;;;;;;;12.52;10.27;;;19.20;89.30;;;;;;5113126;28;20466;-40
2023/09/02 08:31:11;;;;;;;15.45;10.80;;;19.30;89.20;;;;;;5094717;28;20051;-42
2023/09/02 08:33:36;;;;;;;13.13;10.25;;;19.20;89.10;;;;;;5113038;28;20432;-43
2023/09/02 08:36:02;;;;;;;12.02;10.07;;;19.30;89.10;;;;;;5112854;28;20024;-41
2023/09/02 08:38:28;;;;;;;13.40;10.65;;;19.30;89.10;;;;;;5112999;28;20438;-40
2023/09/02 08:40:54;;;;;;;11.70;9.73;;;19.30;89.10;;;;;;5112766;28;20087;-39
2023/09/02 08:43:21;;;;;;;13.00;10.02;;;19.40;89.00;;;;;;5112520;28;20100;-42
2023/09/02 08:45:51;;;;;;;12.25;10.50;;;19.60;88.90;;;;;;5112699;28;20469;-38
2023/09/02 08:48:22;;;;;;;12.55;9.82;;;19.60;88.60;;;;;;5112374;28;20377;-40
2023/09/02 08:50:50;;;;;;;11.93;9.68;;;19.80;88.40;;;;;;5112184;28;20024;-37
2023/09/02 08:53:16;;;;;;;13.20;9.95;;;19.80;88.20;;;;;;5112285;28;20032;-44
2023/09/02 08:55:44;;;;;;;13.10;9.75;;;19.80;88.10;;;;;;5094163;28;20031;-41
2023/09/02 08:58:12;;;;;;;11.60;9.70;;;19.80;88.00;;;;;;5111933;28;20028;-41
2023/09/02 09:00:38;;;;;;;12.63;9.68;;;19.90;87.90;;;;;;5112230;28;20020;-41
2023/09/02 09:03:06;;;;;;;10.80;9.50;;;19.90;87.80;;;;;;5111371;28;20024;-42
2023/09/02 09:05:31;;;;;;;11.43;9.48;;;20.00;87.70;;;;;;5112144;28;20353;-35
2023/09/02 09:07:59;;;;;;;11.73;9.05;;;20.10;87.60;;;;;;5111912;28;20034;-42
2023/09/02 09:10:25;;;;;;;12.25;9.73;;;20.10;87.50;;;;;;5093556;28;20019;-42
2023/09/02 09:12:51;;;;;;;11.32;9.32;;;20.20;87.40;;;;;;5111906;28;20031;-40
2023/09/02 09:15:18;;;;;;;11.00;8.85;;;20.30;87.20;;;;;;5093194;28;20495;-41
2023/09/02 09:17:44;;;;;;;12.13;9.27;;;20.40;87.00;;;;;;5112095;28;20098;-41
2023/09/02 09:20:11;;;;;;;11.00;9.30;;;20.40;86.80;;;;;;5111611;28;20024;-42
2023/09/02 09:22:40;;;;;;;9.43;7.93;;;20.50;86.70;;;;;;5112010;28;20443;-41
2023/09/02 09:25:06;;;;;;;10.70;8.85;;;20.50;86.40;;;;;;5111775;28;20016;-40
2023/09/02 09:27:33;;;;;;;10.73;8.63;;;20.50;86.40;;;;;;5111356;28;20085;-43
2023/09/02 09:29:58;;;;;;;10.75;8.68;;;20.50;86.30;;;;;;5111554;28;20034;-42
2023/09/02 09:32:24;;;;;;;11.75;9.02;;;20.60;86.20;;;;;;5111926;28;20028;-40
2023/09/02 09:34:50;;;;;;;10.00;8.82;;;20.70;86.10;;;;;;5111511;28;20358;-39
2023/09/02 09:37:16;;;;;;;10.20;9.07;;;20.80;86.10;;;;;;5111465;28;20451;-41
2023/09/02 09:39:47;;;;;;;10.38;8.57;;;20.80;85.90;;;;;;5111845;28;20019;-41
2023/09/02 09:42:17;;;;;;;10.60;8.70;;;20.80;85.90;;;;;;5111638;28;20153;-38
2023/09/02 09:45:02;;;;;;;10.45;9.05;;;20.80;85.60;;;;;;5111576;28;20047;-43
2023/09/02 09:47:28;;;;;;;10.50;8.95;;;20.80;85.40;;;;;;5093447;28;20035;-41
2023/09/02 09:50:10;;;;;;;12.13;8.70;;;20.70;85.60;;;;;;5111210;28;20031;-41
2023/09/02 09:52:35;;;;;;;10.43;8.48;;;20.70;85.60;;;;;;5111226;28;20032;-43
2023/09/02 09:55:01;;;;;;;11.07;9.20;;;20.70;85.60;;;;;;5111454;28;20411;-40
2023/09/02 09:57:29;;;;;;;9.98;8.30;;;20.70;85.40;;;;;;5110997;28;20027;-40
2023/09/02 09:59:55;;;;;;;10.32;8.73;;;20.80;85.30;;;;;;5111091;28;20034;-38
2023/09/02 10:02:22;;;;;;;10.10;8.65;;;20.90;85.20;;;;;;5092803;28;20103;-44
2023/09/02 10:04:55;;;;;;;9.70;8.68;;;21.00;85.00;;;;;;5110996;28;20449;-41
2023/09/02 10:07:30;;;;;;;10.20;8.80;;;21.10;84.70;;;;;;5110725;28;20081;-40
2023/09/02 10:10:00;;;;;;;10.15;8.45;;;21.10;84.50;;;;;;5110976;28;20563;-42
2023/09/02 10:12:33;;;;;;;10.88;9.60;;;21.20;84.50;;;;;;5110559;28;20094;-38
2023/09/02 10:14:59;;;;;;;10.87;8.97;;;21.20;84.40;;;;;;5110845;28;20023;-41
2023/09/02 10:17:25;;;;;;;9.73;8.73;;;21.20;84.20;;;;;;5110609;28;20285;-42
2023/09/02 10:19:51;;;;;;;8.75;7.57;;;21.20;84.00;;;;;;5110153;28;20100;-40
2023/09/02 10:22:20;;;;;;;9.73;8.35;;;21.20;84.00;;;;;;5110646;28;20020;-41
2023/09/02 10:24:58;;;;;;;8.90;8.00;;;21.30;83.90;;;;;;5110451;28;20028;-43
2023/09/02 10:27:26;;;;;;;10.05;8.38;;;21.40;83.80;;;;;;5110408;28;20126;-41
2023/09/02 10:29:57;;;;;;;9.30;8.10;;;21.40;83.40;;;;;;5110694;28;20024;-43
2023/09/02 10:32:28;;;;;;;8.98;8.05;;;21.40;83.50;;;;;;5110518;28;20023;-43
2023/09/02 10:35:00;;;;;;;8.98;8.07;;;21.30;83.40;;;;;;5110460;28;20027;-42
2023/09/02 10:37:33;;;;;;;10.48;8.80;;;21.30;83.40;;;;;;5110067;28;20038;-43
2023/09/02 10:40:07;;;;;;;9.70;8.30;;;21.40;83.30;;;;;;5110392;28;20020;-42
2023/09/02 10:42:34;;;;;;;9.05;8.15;;;21.40;83.00;;;;;;5110342;28;20425;-44
2023/09/02 10:45:00;;;;;;;8.75;7.85;;;21.40;83.00;;;;;;5110243;28;20110;-43
2023/09/02 10:47:26;;;;;;;8.23;7.43;;;21.50;82.90;;;;;;5110750;28;20102;-43
2023/09/02 10:49:53;;;;;;;10.00;8.50;;;21.50;82.80;;;;;;5110305;28;20168;-42
2023/09/02 10:52:19;;;;;;;8.18;7.28;;;21.50;82.70;;;;;;5110009;28;20052;-42
2023/09/02 10:55:03;;;;;;;8.73;7.70;;;21.60;82.60;;;;;;5109023;28;20552;-36
2023/09/02 10:57:29;;;;;;;9.15;7.78;;;21.60;82.50;;;;;;5109839;28;20024;-43
2023/09/02 11:00:11;;;;;;;10.95;8.40;;;21.60;82.40;;;;;;5110224;28;20111;-44
2023/09/02 11:02:41;;;;;;;8.75;7.90;;;21.50;82.30;;;;;;5109821;28;20153;-40
2023/09/02 11:05:07;;;;;;;7.68;6.93;;;21.50;82.40;;;;;;5109900;28;20023;-42
2023/09/02 11:07:34;;;;;;;8.52;7.20;;;21.50;82.50;;;;;;5110337;28;20585;-42
2023/09/02 11:10:00;;;;;;;7.97;7.18;;;21.40;82.50;;;;;;5109854;28;20028;-41
2023/09/02 11:12:27;;;;;;;8.82;7.35;;;21.40;82.40;;;;;;5110008;28;20058;-41
2023/09/02 11:15:08;;;;;;;8.13;7.30;;;21.40;82.30;;;;;;5110025;28;20407;-40
2023/09/02 11:17:38;;;;;;;7.32;6.63;;;21.40;82.20;;;;;;5109789;28;20031;-38
2023/09/02 11:20:06;;;;;;;6.90;6.20;;;21.50;82.20;;;;;;5109584;28;20027;-43
2023/09/02 11:22:50;;;;;;;7.32;6.60;;;21.60;82.10;;;;;;5109782;28;20406;-38
2023/09/02 11:25:30;;;;;;;7.13;6.35;;;21.70;81.80;;;;;;5109353;28;20027;-43
2023/09/02 11:27:57;;;;;;;7.28;6.57;;;21.80;81.60;;;;;;5109387;28;20097;-43
2023/09/02 11:30:24;;;;;;;7.47;6.78;;;21.90;81.20;;;;;;5109672;28;20023;-43
2023/09/02 11:32:50;;;;;;;7.78;6.95;;;21.80;81.00;;;;;;5109469;28;20023;-43
2023/09/02 11:35:23;;;;;;;8.23;6.32;;;21.80;81.10;;;;;;5109702;28;20032;-41
2023/09/02 11:37:49;;;;;;;7.30;6.50;;;21.70;81.10;;;;;;5109138;28;20024;-40
2023/09/02 11:40:16;;;;;;;6.35;5.75;;;21.70;81.20;;;;;;5109184;28;20437;-43
2023/09/02 11:42:49;;;;;;;7.03;6.38;;;21.70;81.10;;;;;;5110055;28;20027;-42
2023/09/02 11:45:15;;;;;;;6.40;5.70;;;21.70;81.00;;;;;;5109281;28;20461;-41
2023/09/02 11:47:41;;;;;;;6.18;5.47;;;21.80;81.00;;;;;;5109396;28;20047;-42
2023/09/02 11:50:18;;;;;;;5.30;4.80;;;21.90;80.90;;;;;;5109175;28;20055;-42
2023/09/02 11:52:44;;;;;;;6.03;5.35;;;22.00;80.40;;;;;;5109883;28;20358;-43
2023/09/02 11:55:12;;;;;;;5.15;4.68;;;22.00;80.40;;;;;;5109498;28;20495;-41
2023/09/02 11:57:38;;;;;;;4.90;4.47;;;22.10;80.10;;;;;;5108834;28;20031;-42
2023/09/02 12:00:06;;;;;;;5.15;4.65;;;22.20;80.10;;;;;;5109592;28;20546;-41
2023/09/02 12:02:35;;;;;;;5.63;5.10;;;22.40;79.90;;;;;;5109526;28;20044;-41
2023/09/02 12:05:00;;;;;;;4.97;4.57;;;22.50;79.70;;;;;;5109625;28;20387;-43
2023/09/02 12:07:26;;;;;;;5.65;5.07;;;22.60;79.50;;;;;;5109623;28;20100;-41
2023/09/02 12:09:52;;;;;;;4.75;4.30;;;22.60;79.20;;;;;;5109547;28;20077;-44
2023/09/02 12:12:17;;;;;;;4.78;4.38;;;22.70;79.10;;;;;;5109252;28;20026;-42
2023/09/02 12:14:43;;;;;;;4.60;4.20;;;22.70;78.90;;;;;;5109118;28;20481;-42
2023/09/02 12:17:10;;;;;;;5.18;4.68;;;22.60;78.80;;;;;;5090806;28;20030;-43
2023/09/02 12:19:36;;;;;;;5.75;4.80;;;22.60;78.80;;;;;;5109285;28;20042;-38
2023/09/02 12:22:02;;;;;;;5.65;5.07;;;22.60;78.80;;;;;;5109219;28;20099;-40
2023/09/02 12:24:29;;;;;;;4.95;4.43;;;22.60;78.50;;;;;;5109296;28;20104;-40
2023/09/02 12:26:55;;;;;;;5.47;4.97;;;22.70;78.60;;;;;;5109026;28;20039;-42
2023/09/02 12:29:23;;;;;;;5.22;4.72;;;22.70;78.60;;;;;;5109277;28;20521;-43
2023/09/02 12:31:56;;;;;;;5.45;4.95;;;22.70;78.50;;;;;;5109231;28;20499;-43